Time;durP1;ratioP1;P1;durP2;ratioP2;P2;SDS_P1;SDS_P2;PMS_P1;PMS_P2;Temp;Humidity;BMP_temperature;BMP_pressure;BME280_temperature;BME280_humidity;BME280_pressure;Samples;Min_cycle;Max_cycle;Signal;HPM_P1;HPM_P2
2023/01/22 00:00:40;;;;;;;57.60;28.90;;;;;;;-0.73;97.95;98975.35;106627;1277;22564;-71
2023/01/22 00:03:27;;;;;;;61.10;28.80;;;;;;;-0.74;97.80;98975.97;106598;1282;138395;-71
2023/01/22 00:05:54;;;;;;;65.10;31.20;;;;;;;-0.75;97.97;98980.52;106685;1261;22537;-71
2023/01/22 00:08:21;;;;;;;63.00;31.00;;;;;;;-0.76;97.77;98982.92;106532;1281;139404;-71
2023/01/22 00:10:49;;;;;;;57.40;29.90;;;;;;;-0.75;98.12;98980.70;107426;1276;22394;-71
2023/01/22 00:13:17;;;;;;;65.50;32.50;;;;;;;-0.75;98.04;98986.42;106661;1281;139141;-71
2023/01/22 00:15:44;;;;;;;63.30;30.40;;;;;;;-0.76;97.87;98980.64;106815;1281;139971;-71
2023/01/22 00:18:11;;;;;;;62.10;29.40;;;;;;;-0.77;98.00;98985.02;106944;1262;22553;-71
2023/01/22 00:20:39;;;;;;;59.00;29.50;;;;;;;-0.78;97.72;98994.48;106347;1281;139744;-71
2023/01/22 00:23:06;;;;;;;56.70;28.80;;;;;;;-0.78;97.78;98993.84;106715;1281;23031;-70
2023/01/22 00:25:33;;;;;;;60.80;30.70;;;;;;;-0.78;97.86;98993.27;106631;1281;138698;-71
2023/01/22 00:27:59;;;;;;;59.90;28.40;;;;;;;-0.78;97.73;98998.80;106673;1270;139134;-71
2023/01/22 00:30:26;;;;;;;53.70;26.60;;;;;;;-0.79;97.88;99000.19;106732;1280;23400;-71
2023/01/22 00:32:53;;;;;;;58.10;28.20;;;;;;;-0.79;97.81;99002.89;106664;1280;139214;-70
2023/01/22 00:35:21;;;;;;;52.40;27.20;;;;;;;-0.80;97.53;99002.23;106810;1280;22562;-70
2023/01/22 00:37:48;;;;;;;47.10;23.60;;;;;;;-0.81;97.88;98998.37;106604;1262;139271;-71
2023/01/22 00:40:16;;;;;;;51.50;27.60;;;;;;;-0.82;97.76;99001.33;107035;1262;22567;-70
2023/01/22 00:42:43;;;;;;;51.40;24.60;;;;;;;-0.83;97.75;99003.95;106686;1281;22582;-70
2023/01/22 00:45:13;;;;;;;51.20;25.00;;;;;;;-0.84;97.50;99000.89;106574;1281;139857;-70
2023/01/22 00:47:40;;;;;;;48.30;23.90;;;;;;;-0.85;97.47;99003.48;106934;1263;22544;-70
2023/01/22 00:50:08;;;;;;;51.50;24.50;;;;;;;-0.86;97.61;99002.10;106832;1281;139036;-70
2023/01/22 00:52:36;;;;;;;49.00;24.80;;;;;;;-0.85;97.52;98996.73;106921;1278;25216;-70
2023/01/22 00:55:04;;;;;;;51.80;24.10;;;;;;;-0.87;97.43;98998.63;106894;1273;140342;-71
2023/01/22 00:57:31;;;;;;;48.80;24.20;;;;;;;-0.88;97.28;99001.27;106927;1277;139519;-70
2023/01/22 00:59:59;;;;;;;45.00;22.50;;;;;;;-0.90;97.42;99004.70;106832;1280;23012;-70
2023/01/22 01:02:27;;;;;;;46.10;23.40;;;;;;;-0.89;97.47;99006.96;106433;1275;139914;-70
2023/01/22 01:04:55;;;;;;;42.60;21.50;;;;;;;-0.89;97.55;99004.27;106753;1273;23943;-70
2023/01/22 01:07:23;;;;;;;39.00;21.00;;;;;;;-0.88;97.37;99006.67;106621;1260;139028;-70
2023/01/22 01:09:50;;;;;;;43.90;20.80;;;;;;;-0.88;97.53;98999.33;106755;1281;138538;-70
2023/01/22 01:12:17;;;;;;;41.30;20.70;;;;;;;-0.90;97.11;98992.20;106773;1281;22989;-70
2023/01/22 01:14:44;;;;;;;41.70;20.80;;;;;;;-0.93;96.72;98990.58;106541;1281;138983;-70
2023/01/22 01:17:11;;;;;;;43.30;21.30;;;;;;;-0.98;96.74;98989.48;106737;1260;22558;-70
2023/01/22 01:19:38;;;;;;;44.30;20.90;;;;;;;-1.00;97.13;98990.50;106672;1275;139344;-70
2023/01/22 01:22:06;;;;;;;39.80;20.70;;;;;;;-1.02;97.16;98984.48;108012;1281;139777;-70
2023/01/22 01:24:35;;;;;;;39.30;19.20;;;;;;;-1.04;96.81;98990.65;106748;1281;24109;-71
2023/01/22 01:27:02;;;;;;;41.00;18.80;;;;;;;-1.09;97.09;98997.33;107565;1277;140336;-71
2023/01/22 01:29:29;;;;;;;43.00;21.40;;;;;;;-1.09;96.85;98993.98;106832;1263;22569;-70
2023/01/22 01:31:56;;;;;;;36.80;19.30;;;;;;;-1.09;97.34;99000.71;107883;1276;141280;-71
2023/01/22 01:34:23;;;;;;;38.10;18.50;;;;;;;-1.07;97.17;99010.70;107856;1276;22768;-71
2023/01/22 01:36:50;;;;;;;39.00;18.50;;;;;;;-1.06;97.16;99012.88;106799;1276;24264;-70
2023/01/22 01:39:18;;;;;;;36.40;18.00;;;;;;;-1.05;97.28;99016.02;106580;1262;138699;-70
2023/01/22 01:41:46;;;;;;;33.10;16.30;;;;;;;-1.03;97.11;99022.09;106707;1281;25667;-70
2023/01/22 01:44:18;;;;;;;35.90;17.00;;;;;;;-1.04;97.34;99024.42;106493;1281;138893;-70
2023/01/22 01:46:53;;;;;;;30.40;16.60;;;;;;;-1.03;97.43;99022.92;107466;1281;24094;-70
2023/01/22 01:49:32;;;;;;;33.10;15.20;;;;;;;-1.04;97.27;99028.63;106715;1273;139635;-70
2023/01/22 01:52:01;;;;;;;;;;;;;;;-1.05;97.07;99033.44;106726;1279;139050;-71
2023/01/22 01:54:29;;;;;;;27.60;13.70;;;;;;;-1.05;97.04;99034.50;106805;1281;23753;-70
2023/01/22 01:57:05;;;;;;;28.60;13.50;;;;;;;-1.04;96.95;99033.55;106715;1276;139467;-70
2023/01/22 01:59:34;;;;;;;29.00;14.10;;;;;;;-1.05;96.74;99027.98;106815;1270;23949;-70
2023/01/22 02:02:01;;;;;;;;;;;;;;;-1.06;96.97;99033.90;106989;1277;139105;-70
2023/01/22 02:04:29;;;;;;;28.80;13.70;;;;;;;-1.05;96.76;99035.84;106813;1280;24340;-70
2023/01/22 02:06:56;;;;;;;24.50;13.30;;;;;;;-1.05;96.94;99043.06;106758;1281;25413;-70
2023/01/22 02:09:23;;;;;;;25.60;12.60;;;;;;;-1.04;96.73;99040.29;106808;1279;138751;-70
2023/01/22 02:11:52;;;;;;;24.00;12.40;;;;;;;-1.03;96.84;99043.23;107643;1278;22538;-70
2023/01/22 02:14:27;;;;;;;26.70;13.00;;;;;;;-1.02;96.90;99050.98;106937;1279;140255;-70
2023/01/22 02:17:11;;;;;;;25.70;13.00;;;;;;;-1.00;96.69;99058.84;106785;1281;22547;-70
2023/01/22 02:19:41;;;;;;;28.40;13.50;;;;;;;-0.99;96.76;99063.19;106691;1272;139075;-70
2023/01/22 02:22:19;;;;;;;29.50;14.10;;;;;;;-0.99;96.69;99057.64;106881;1278;139341;-70
2023/01/22 02:24:48;;;;;;;27.00;14.10;;;;;;;-0.98;96.72;99052.23;106837;1273;22534;-70
2023/01/22 02:27:15;;;;;;;28.80;14.70;;;;;;;-1.00;96.77;99041.46;106528;1281;139361;-70
2023/01/22 02:29:41;;;;;;;29.70;14.50;;;;;;;-0.99;96.45;99036.96;107318;1273;22780;-71
2023/01/22 02:32:11;;;;;;;27.80;14.20;;;;;;;-0.99;96.67;99034.79;106631;1279;141041;-71
2023/01/22 02:34:38;;;;;;;27.30;14.70;;;;;;;-1.00;96.50;99035.95;106946;1279;24259;-71
2023/01/22 02:37:05;;;;;;;30.00;14.90;;;;;;;-1.00;96.33;99035.61;106659;1281;139353;-70
2023/01/22 02:39:32;;;;;;;27.40;13.60;;;;;;;-1.01;96.53;99028.96;106741;1271;138477;-70
2023/01/22 02:42:04;;;;;;;27.80;15.10;;;;;;;-1.02;96.25;99035.63;107030;1281;26641;-70
2023/01/22 02:44:31;;;;;;;28.60;14.50;;;;;;;-1.02;96.09;99034.81;107460;1281;140951;-70
2023/01/22 02:46:59;;;;;;;29.60;14.60;;;;;;;-1.02;96.20;99037.49;107046;1275;23346;-70
2023/01/22 02:49:27;;;;;;;28.70;13.40;;;;;;;-1.04;96.44;99033.67;106780;1264;139023;-71
2023/01/22 02:51:54;;;;;;;31.80;14.80;;;;;;;-1.04;96.24;99030.94;106656;1281;138692;-70
2023/01/22 02:54:21;;;;;;;30.10;15.20;;;;;;;-1.04;96.02;99036.27;107185;1279;22564;-70
2023/01/22 02:56:48;;;;;;;31.70;15.50;;;;;;;-1.05;96.25;99039.77;106532;1282;139378;-70
2023/01/22 02:59:15;;;;;;;28.00;15.40;;;;;;;-1.07;95.96;99031.58;106880;1260;25415;-71
2023/01/22 03:01:42;;;;;;;28.60;15.00;;;;;;;-1.08;96.10;99028.13;106627;1281;139325;-70
2023/01/22 03:04:11;;;;;;;28.30;14.30;;;;;;;-1.08;95.94;99029.36;106632;1281;138760;-70
2023/01/22 03:06:39;;;;;;;;;;;;;;;-1.08;96.20;99028.40;107100;1280;24343;-70
2023/01/22 03:09:09;;;;;;;33.70;15.80;;;;;;;-1.08;96.31;99034.73;107277;1281;126030;-70
2023/01/22 03:11:37;;;;;;;;;;;;;;;-1.09;96.38;99036.20;109126;1263;22570;-70
2023/01/22 03:22:32;;;;;;;31.60;15.50;;;;;;;-1.09;96.36;99044.95;106764;1281;22647;-70
2023/01/22 03:25:00;;;;;;;28.90;14.20;;;;;;;-1.09;96.35;99047.27;107381;1277;22535;-71
2023/01/22 03:27:29;;;;;;;28.50;14.70;;;;;;;-1.08;96.37;99055.57;106650;1280;139623;-71
2023/01/22 03:29:56;;;;;;;28.40;14.80;;;;;;;-1.07;96.32;99057.77;106660;1257;22958;-70
2023/01/22 03:32:23;;;;;;;28.00;13.40;;;;;;;-1.07;96.36;99056.54;106619;1278;139916;-71
2023/01/22 03:34:50;;;;;;;29.00;15.10;;;;;;;-1.07;96.24;99057.58;109178;1278;22556;-71
2023/01/22 03:37:17;;;;;;;31.10;15.80;;;;;;;-1.07;95.93;99056.13;108014;1273;139440;-71
2023/01/22 03:39:46;;;;;;;29.00;14.40;;;;;;;-1.06;96.13;99059.58;106677;1281;138536;-71
2023/01/22 03:42:19;;;;;;;27.80;14.30;;;;;;;-1.05;96.14;99059.20;107139;1264;22536;-71
2023/01/22 03:44:46;;;;;;;24.20;13.70;;;;;;;-1.04;96.06;99058.88;106613;1282;138895;-71
2023/01/22 03:47:14;;;;;;;28.40;14.40;;;;;;;-1.04;95.77;99057.46;106761;1277;24227;-70
2023/01/22 03:49:41;;;;;;;28.10;13.80;;;;;;;-1.05;96.13;99054.12;106753;1276;139441;-71
2023/01/22 03:52:11;;;;;;;25.00;13.50;;;;;;;-1.04;95.84;99047.84;106700;1263;138980;-71
2023/01/22 03:54:39;;;;;;;29.00;14.90;;;;;;;-1.05;96.07;99054.69;106777;1281;24329;-70
2023/01/22 03:57:07;;;;;;;25.80;13.30;;;;;;;-1.05;95.93;99057.52;106635;1281;139211;-70
2023/01/22 03:59:37;;;;;;;26.50;13.60;;;;;;;-1.04;95.85;99060.11;106798;1265;22656;-70
2023/01/22 04:02:04;;;;;;;27.40;13.70;;;;;;;-1.05;95.98;99056.43;106507;1281;139696;-70
2023/01/22 04:04:36;;;;;;;22.90;12.80;;;;;;;-1.05;95.91;99059.63;106694;1282;22538;-71
2023/01/22 04:07:03;;;;;;;24.20;12.90;;;;;;;-1.06;96.05;99057.25;106628;1282;138629;-71
2023/01/22 04:09:30;;;;;;;24.40;13.60;;;;;;;-1.06;95.73;99058.88;106617;1281;138616;-70
2023/01/22 04:11:58;;;;;;;23.50;13.30;;;;;;;-1.08;95.92;99058.05;106736;1264;24252;-70
2023/01/22 04:14:26;;;;;;;24.50;12.50;;;;;;;-1.08;95.76;99056.25;106573;1282;138957;-70
2023/01/22 04:16:58;;;;;;;26.80;12.60;;;;;;;-1.08;95.91;99054.99;106762;1282;22576;-70
2023/01/22 04:19:28;;;;;;;22.80;11.80;;;;;;;-1.09;95.81;99057.90;106643;1282;138661;-70
2023/01/22 04:22:15;;;;;;;19.80;11.90;;;;;;;-1.09;95.92;99063.61;106375;1281;138549;-70
2023/01/22 04:24:43;;;;;;;21.00;11.50;;;;;;;-1.09;95.93;99066.13;106683;1274;22656;-70
2023/01/22 04:27:10;;;;;;;21.60;12.50;;;;;;;-1.08;96.25;99066.63;106558;1267;140001;-70
2023/01/22 04:29:37;;;;;;;24.90;11.40;;;;;;;-1.08;96.19;99068.20;106753;1281;22566;-71
2023/01/22 04:32:06;;;;;;;24.80;12.70;;;;;;;-1.09;96.00;99066.88;106537;1262;138787;-70
2023/01/22 04:34:51;;;;;;;18.90;10.70;;;;;;;-1.10;95.90;99064.83;106612;1281;215132;-71
2023/01/22 04:37:22;;;;;;;24.70;12.00;;;;;;;-1.10;95.71;99066.63;106725;1281;138764;-70
2023/01/22 04:39:49;;;;;;;23.70;12.00;;;;;;;-1.11;96.24;99063.30;106579;1281;140476;-70
2023/01/22 04:42:17;;;;;;;20.10;11.00;;;;;;;-1.10;96.14;99061.09;107265;1268;24268;-70
2023/01/22 04:44:43;;;;;;;20.00;11.50;;;;;;;-1.11;96.11;99063.09;106535;1276;139238;-70
2023/01/22 04:47:10;;;;;;;20.60;12.10;;;;;;;-1.11;96.12;99065.13;106818;1279;22541;-70
2023/01/22 04:49:39;;;;;;;24.00;11.50;;;;;;;-1.11;96.22;99062.02;107271;1280;138502;-70
2023/01/22 04:52:09;;;;;;;21.50;11.90;;;;;;;-1.10;96.11;99061.59;106749;1264;139311;-70
2023/01/22 04:54:36;;;;;;;20.30;10.10;;;;;;;-1.10;96.10;99068.37;107299;1280;24280;-71
2023/01/22 04:57:02;;;;;;;20.80;10.70;;;;;;;-1.10;96.48;99065.89;107098;1273;140863;-71
2023/01/22 04:59:30;;;;;;;21.60;10.20;;;;;;;-1.10;96.14;99064.66;106813;1278;25422;-70
2023/01/22 05:01:59;;;;;;;22.30;10.80;;;;;;;-1.09;96.38;99068.48;106585;1260;139414;-71
2023/01/22 05:04:26;;;;;;;19.70;10.80;;;;;;;-1.10;96.46;99067.11;107106;1279;22679;-71
2023/01/22 05:06:53;;;;;;;22.90;10.70;;;;;;;-1.09;96.17;99064.73;106704;1276;22627;-70
2023/01/22 05:09:20;;;;;;;21.10;11.10;;;;;;;-1.11;96.36;99069.55;106486;1275;141719;-70
2023/01/22 05:11:52;;;;;;;21.60;10.80;;;;;;;-1.12;96.46;99070.19;106973;1273;24205;-71
2023/01/22 05:14:19;;;;;;;21.30;10.80;;;;;;;-1.12;96.51;99070.06;107673;1275;139716;-71
2023/01/22 05:16:48;;;;;;;24.30;11.70;;;;;;;-1.13;96.34;99067.05;106716;1281;25496;-70
2023/01/22 05:19:15;;;;;;;20.20;10.40;;;;;;;-1.14;96.52;99065.72;106849;1281;139083;-71
2023/01/22 05:21:42;;;;;;;22.40;11.30;;;;;;;-1.14;96.39;99074.66;107681;1271;138681;-72
2023/01/22 05:24:09;;;;;;;22.60;10.60;;;;;;;-1.15;96.27;99078.80;107310;1263;23905;-71
2023/01/22 05:26:38;;;;;;;19.90;11.40;;;;;;;-1.15;96.61;99079.51;106745;1273;140777;-72
2023/01/22 05:29:11;;;;;;;19.20;9.80;;;;;;;-1.13;96.51;99081.71;106771;1281;22540;-71
2023/01/22 05:31:45;;;;;;;22.00;10.40;;;;;;;-1.12;96.53;99077.91;106637;1267;138694;-71
2023/01/22 05:34:38;;;;;;;19.20;9.30;;;;;;;-1.13;96.73;99081.34;106657;1275;22549;-71
2023/01/22 05:37:05;;;;;;;21.30;10.50;;;;;;;-1.15;96.70;99080.80;106528;1280;138913;-72
2023/01/22 05:39:34;;;;;;;20.90;10.00;;;;;;;-1.15;96.48;99085.48;106657;1277;139254;-72
2023/01/22 05:42:04;;;;;;;20.70;9.20;;;;;;;-1.16;96.60;99080.92;106725;1275;25246;-71
2023/01/22 05:44:31;;;;;;;20.10;9.90;;;;;;;-1.17;96.63;99090.97;106462;1259;138573;-72
2023/01/22 05:47:00;;;;;;;20.50;11.10;;;;;;;-1.18;96.52;99093.17;107243;1281;22543;-72
2023/01/22 05:49:50;;;;;;;21.90;11.80;;;;;;;-1.18;96.59;99100.89;106602;1282;138908;-71
2023/01/22 05:52:17;;;;;;;21.60;10.70;;;;;;;-1.18;96.87;99109.56;106563;1278;138655;-71
2023/01/22 05:54:45;;;;;;;19.30;10.10;;;;;;;-1.16;96.96;99121.39;106765;1262;22554;-73
2023/01/22 05:57:12;;;;;;;21.50;11.20;;;;;;;-1.15;97.18;99126.64;106492;1280;139467;-72
2023/01/22 05:59:39;;;;;;;22.20;10.90;;;;;;;-1.15;96.84;99126.09;106736;1279;22580;-71
2023/01/22 06:02:08;;;;;;;18.20;10.40;;;;;;;-1.14;97.04;99121.19;106603;1278;139580;-75
2023/01/22 06:04:38;;;;;;;17.80;9.50;;;;;;;-1.14;97.17;99129.35;106707;1263;25452;-71
2023/01/22 06:07:13;;;;;;;17.90;10.40;;;;;;;-1.14;97.19;99126.17;106575;1281;138870;-71
2023/01/22 06:09:40;;;;;;;20.10;9.90;;;;;;;-1.14;97.25;99119.39;106511;1282;138683;-71
2023/01/22 06:12:07;;;;;;;24.00;11.40;;;;;;;-1.14;97.20;99120.09;106782;1282;22562;-71
2023/01/22 06:14:34;;;;;;;19.60;11.10;;;;;;;-1.14;97.45;99131.69;106496;1281;138817;-71
2023/01/22 06:17:02;;;;;;;21.20;10.40;;;;;;;-1.13;97.43;99129.66;106683;1281;25430;-71
2023/01/22 06:19:39;;;;;;;19.00;9.70;;;;;;;-1.13;97.10;99124.45;106695;1279;139914;-71
2023/01/22 06:22:07;;;;;;;23.10;11.20;;;;;;;-1.12;97.45;99126.85;106658;1281;138366;-72
2023/01/22 06:24:46;;;;;;;19.30;9.90;;;;;;;-1.12;97.62;99124.73;106674;1259;22549;-71
2023/01/22 06:27:14;;;;;;;22.30;10.10;;;;;;;-1.12;97.43;99122.41;106342;1282;139506;-71
2023/01/22 06:29:50;;;;;;;22.60;10.40;;;;;;;-1.11;97.40;99123.23;106640;1282;22541;-71
2023/01/22 06:32:17;;;;;;;19.20;10.00;;;;;;;-1.11;97.52;99124.23;106511;1279;138819;-72
2023/01/22 06:34:44;;;;;;;20.90;11.40;;;;;;;-1.09;97.53;99125.17;106715;1261;22560;-71
2023/01/22 06:37:11;;;;;;;20.10;11.30;;;;;;;-1.09;97.38;99129.61;106572;1281;139391;-72
2023/01/22 06:39:38;;;;;;;21.10;11.10;;;;;;;-1.09;97.54;99130.98;106566;1281;138494;-71
2023/01/22 06:42:11;;;;;;;19.90;10.40;;;;;;;-1.08;97.51;99124.16;107243;1281;22583;-71
2023/01/22 06:44:38;;;;;;;21.50;10.70;;;;;;;-1.09;97.30;99117.42;106430;1263;139111;-72
2023/01/22 06:47:05;;;;;;;21.20;10.20;;;;;;;-1.08;97.50;99125.16;106570;1267;22771;-72
2023/01/22 06:49:32;;;;;;;20.30;10.10;;;;;;;-1.07;97.70;99131.84;106539;1282;138675;-71
2023/01/22 06:52:00;;;;;;;18.60;10.40;;;;;;;-1.06;97.51;99132.13;106570;1282;138540;-71
2023/01/22 06:54:27;;;;;;;16.80;10.00;;;;;;;-1.05;97.66;99131.34;106627;1263;22576;-71
2023/01/22 06:56:54;;;;;;;18.00;10.10;;;;;;;-1.04;97.58;99136.73;106432;1272;138841;-71
2023/01/22 06:59:23;;;;;;;18.40;10.10;;;;;;;-1.05;97.71;99135.97;106736;1280;22589;-71
2023/01/22 07:01:49;;;;;;;18.70;10.30;;;;;;;-1.05;97.37;99143.82;106712;1260;138855;-71
2023/01/22 07:04:16;;;;;;;20.00;10.90;;;;;;;-1.04;97.80;99152.79;107071;1257;138738;-72
2023/01/22 07:06:43;;;;;;;17.60;10.10;;;;;;;-1.03;97.88;99144.84;109164;1272;22246;-72
2023/01/22 07:09:10;;;;;;;19.60;10.00;;;;;;;-1.01;97.85;99144.63;108507;1274;139214;-72
2023/01/22 07:11:37;;;;;;;19.90;10.10;;;;;;;-0.99;97.57;99142.95;106756;1273;22596;-72
2023/01/22 07:14:04;;;;;;;17.80;10.10;;;;;;;-0.94;97.90;99142.69;106671;1278;138744;-71
2023/01/22 07:16:31;;;;;;;18.70;9.40;;;;;;;-0.88;97.59;99148.70;107024;1264;139372;-72
2023/01/22 07:18:59;;;;;;;16.20;9.80;;;;;;;-0.84;97.64;99156.27;108087;1273;22562;-71
2023/01/22 07:21:26;;;;;;;20.30;11.00;;;;;;;-0.79;97.56;99156.90;106628;1281;138213;-72
2023/01/22 07:23:53;;;;;;;18.30;10.50;;;;;;;-0.75;97.59;99163.99;106775;1281;22989;-71
2023/01/22 07:26:20;;;;;;;18.70;10.40;;;;;;;-0.70;97.91;99174.89;106550;1261;139113;-72
2023/01/22 07:28:47;;;;;;;19.60;10.50;;;;;;;-0.66;97.40;99180.35;106770;1280;22530;-72
2023/01/22 07:31:14;;;;;;;18.50;10.10;;;;;;;-0.64;97.14;99181.90;106703;1273;139590;-72
2023/01/22 07:33:41;;;;;;;17.80;10.10;;;;;;;-0.64;97.02;99184.41;106686;1273;139299;-71
2023/01/22 07:36:08;;;;;;;18.70;9.80;;;;;;;-0.63;97.17;99181.27;106727;1260;24366;-72
2023/01/22 07:38:34;;;;;;;16.80;9.60;;;;;;;-0.63;96.98;99185.73;107027;1274;139198;-72
2023/01/22 07:41:03;;;;;;;15.60;10.10;;;;;;;-0.63;97.02;99183.54;106762;1273;25246;-72
2023/01/22 07:43:31;;;;;;;17.20;9.30;;;;;;;-0.61;96.82;99188.25;107471;1270;138889;-72
2023/01/22 07:46:04;;;;;;;13.90;8.10;;;;;;;-0.60;97.02;99185.38;106746;1278;138392;-72
2023/01/22 07:48:31;;;;;;;18.20;9.60;;;;;;;-0.55;96.96;99184.65;106866;1273;23702;-72
2023/01/22 07:51:03;;;;;;;17.40;10.50;;;;;;;-0.51;97.07;99182.23;107308;1273;139291;-72
2023/01/22 07:53:31;;;;;;;14.70;8.40;;;;;;;-0.47;96.97;99183.20;108573;1281;25265;-72
2023/01/22 07:56:00;;;;;;;18.30;9.70;;;;;;;-0.44;96.66;99182.89;107762;1264;138870;-72
2023/01/22 07:58:27;;;;;;;18.80;10.30;;;;;;;-0.40;96.60;99183.08;107308;1278;138977;-72
2023/01/22 08:00:54;;;;;;;17.30;9.20;;;;;;;-0.38;96.70;99187.14;106722;1281;25314;-72
2023/01/22 08:03:21;;;;;;;18.40;11.10;;;;;;;-0.35;96.66;99189.53;106585;1274;138541;-72
2023/01/22 08:05:47;;;;;;;17.10;10.20;;;;;;;-0.34;96.29;99189.55;106768;1258;22547;-71
2023/01/22 08:08:22;;;;;;;19.00;11.20;;;;;;;-0.32;96.39;99182.44;106659;1278;139587;-72
2023/01/22 08:10:49;;;;;;;19.80;11.50;;;;;;;-0.31;96.33;99182.91;107689;1259;24174;-72
2023/01/22 08:13:15;;;;;;;16.30;10.20;;;;;;;-0.31;96.20;99188.93;106685;1279;139028;-72
2023/01/22 08:15:43;;;;;;;18.80;11.00;;;;;;;-0.32;95.87;99182.67;106639;1275;138564;-71
2023/01/22 08:18:10;;;;;;;18.80;9.80;;;;;;;-0.32;95.96;99175.67;106877;1281;22653;-71
2023/01/22 08:20:37;;;;;;;17.40;9.40;;;;;;;-0.30;96.01;99173.62;106496;1281;139153;-72
2023/01/22 08:23:04;;;;;;;14.50;8.90;;;;;;;-0.25;96.15;99177.73;106770;1274;27630;-72
2023/01/22 08:25:31;;;;;;;20.80;11.20;;;;;;;-0.19;96.17;99182.02;106681;1273;138503;-72
2023/01/22 08:28:03;;;;;;;19.80;11.00;;;;;;;-0.11;96.53;99186.31;106690;1259;139053;-72
2023/01/22 08:30:31;;;;;;;18.40;10.70;;;;;;;-0.09;95.85;99188.59;109995;1278;23516;-73
2023/01/22 08:33:01;;;;;;;17.40;10.00;;;;;;;-0.08;95.80;99185.98;109789;1266;140761;-72
2023/01/22 08:35:29;;;;;;;18.60;10.30;;;;;;;-0.07;95.68;99190.18;108741;1281;22554;-72
2023/01/22 08:38:00;;;;;;;20.90;11.40;;;;;;;-0.04;95.71;99188.59;108076;1258;139386;-72
2023/01/22 08:40:27;;;;;;;18.40;10.40;;;;;;;0.03;95.69;99194.59;107552;1273;139302;-73
2023/01/22 08:42:54;;;;;;;17.90;10.50;;;;;;;0.09;95.75;99198.80;107997;1280;22563;-72
2023/01/22 08:45:22;;;;;;;18.50;10.90;;;;;;;0.16;95.55;99203.52;106653;1274;138535;-72
2023/01/22 08:47:50;;;;;;;21.40;11.80;;;;;;;0.23;95.53;99203.77;106883;1262;25177;-72
2023/01/22 08:50:17;;;;;;;23.40;12.20;;;;;;;0.31;95.53;99205.37;106433;1279;138450;-72
2023/01/22 08:52:44;;;;;;;19.80;11.40;;;;;;;0.37;95.23;99200.31;106680;1279;22681;-72
2023/01/22 08:55:11;;;;;;;23.60;12.00;;;;;;;0.41;94.90;99199.48;107143;1266;139676;-73
2023/01/22 08:57:38;;;;;;;20.90;10.60;;;;;;;0.47;95.01;99201.55;107034;1266;138880;-72
2023/01/22 09:00:05;;;;;;;21.00;10.30;;;;;;;0.50;94.67;99201.78;106718;1273;24353;-72
2023/01/22 09:02:32;;;;;;;17.50;10.10;;;;;;;0.49;94.28;99203.10;107119;1274;138339;-72
2023/01/22 09:04:59;;;;;;;19.60;11.50;;;;;;;0.47;94.07;99207.10;106796;1275;22552;-72
2023/01/22 09:07:26;;;;;;;18.50;10.40;;;;;;;0.43;94.24;99205.70;107338;1262;138903;-72
2023/01/22 09:09:53;;;;;;;21.90;11.10;;;;;;;0.39;93.96;99205.24;107276;1275;138904;-72
2023/01/22 09:12:20;;;;;;;19.80;11.20;;;;;;;0.38;94.06;99206.44;106688;1281;23004;-72
2023/01/22 09:14:47;;;;;;;19.00;10.40;;;;;;;0.38;94.11;99201.45;106485;1281;139171;-72
2023/01/22 09:17:13;;;;;;;22.00;12.20;;;;;;;0.40;94.14;99201.25;106657;1259;22547;-72
2023/01/22 09:19:40;;;;;;;21.30;11.40;;;;;;;0.47;94.36;99211.60;106678;1281;138377;-72
2023/01/22 09:22:07;;;;;;;21.70;11.50;;;;;;;0.60;94.52;99212.55;106582;1270;138356;-72
2023/01/22 09:24:34;;;;;;;21.00;11.60;;;;;;;0.73;94.70;99215.58;107271;1261;24210;-72
2023/01/22 09:27:01;;;;;;;20.10;11.50;;;;;;;0.85;94.33;99213.99;106438;1277;138728;-72
2023/01/22 09:29:28;;;;;;;19.90;11.20;;;;;;;0.93;94.08;99206.48;107100;1278;23106;-72
2023/01/22 09:31:55;;;;;;;20.30;11.00;;;;;;;1.01;93.91;99207.27;107094;1266;138266;-72
2023/01/22 09:34:22;;;;;;;21.00;12.60;;;;;;;1.07;93.33;99201.21;108212;1273;141687;-72
2023/01/22 09:36:49;;;;;;;18.50;11.90;;;;;;;1.13;93.33;99198.66;106683;1281;25597;-72
2023/01/22 09:39:16;;;;;;;17.00;11.00;;;;;;;1.20;92.90;99202.39;106447;1281;138299;-72
2023/01/22 09:41:50;;;;;;;19.70;11.30;;;;;;;1.23;92.50;99198.44;106625;1275;24204;-72
2023/01/22 09:44:26;;;;;;;16.80;10.70;;;;;;;1.24;92.21;99202.16;107032;1281;139237;-72
2023/01/22 09:47:12;;;;;;;18.30;11.00;;;;;;;1.24;92.08;99199.11;106800;1281;22802;-72
2023/01/22 09:49:54;;;;;;;17.70;10.60;;;;;;;1.29;92.10;99198.91;106990;1264;138856;-72
2023/01/22 09:52:26;;;;;;;16.40;10.20;;;;;;;1.32;91.76;99194.77;106526;1273;139220;-72
2023/01/22 09:54:53;;;;;;;18.70;10.30;;;;;;;1.34;91.84;99198.51;106707;1281;22587;-71
2023/01/22 09:57:20;;;;;;;16.30;9.80;;;;;;;1.35;91.78;99199.72;106519;1281;138853;-71
2023/01/22 09:59:50;;;;;;;19.40;10.80;;;;;;;1.34;91.37;99195.45;107063;1262;22626;-71
2023/01/22 10:02:28;;;;;;;18.70;10.20;;;;;;;1.34;91.24;99190.86;107251;1274;138345;-72
2023/01/22 10:05:04;;;;;;;18.20;11.30;;;;;;;1.41;91.68;99190.66;107183;1277;25330;-72
2023/01/22 10:07:37;;;;;;;17.90;11.30;;;;;;;1.56;91.86;99189.54;106785;1273;138365;-71
2023/01/22 10:10:21;;;;;;;21.30;11.00;;;;;;;1.71;91.52;99190.56;107255;1264;138346;-71
2023/01/22 10:12:54;;;;;;;19.60;10.70;;;;;;;1.82;91.08;99200.02;106637;1281;22567;-72
2023/01/22 10:15:23;;;;;;;20.60;11.80;;;;;;;1.91;90.83;99201.79;107394;1273;138586;-72
2023/01/22 10:17:51;;;;;;;22.10;12.40;;;;;;;1.98;90.61;99198.51;106926;1277;26649;-71
2023/01/22 10:20:19;;;;;;;20.40;12.90;;;;;;;2.05;90.28;99193.70;106835;1259;138430;-71
2023/01/22 10:22:47;;;;;;;27.00;13.90;;;;;;;2.16;90.23;99195.04;106540;1278;22986;-71
2023/01/22 10:25:15;;;;;;;22.80;13.10;;;;;;;2.24;90.19;99206.14;106473;1282;138397;-72
2023/01/22 10:27:44;;;;;;;21.30;12.60;;;;;;;2.26;89.59;99196.79;106498;1282;138517;-71
2023/01/22 10:30:20;;;;;;;22.90;12.60;;;;;;;2.24;89.22;99197.73;106725;1281;24865;-71
2023/01/22 10:33:02;;;;;;;20.20;12.30;;;;;;;2.21;89.19;99202.23;106459;1281;138688;-72
2023/01/22 10:35:31;;;;;;;19.50;12.40;;;;;;;2.13;88.97;99208.85;106702;1281;22610;-71
2023/01/22 10:37:59;;;;;;;21.10;12.50;;;;;;;2.01;88.69;99202.23;106603;1275;138150;-71
2023/01/22 10:40:36;;;;;;;17.40;10.50;;;;;;;1.98;88.95;99206.70;106712;1262;140113;-72
2023/01/22 10:43:15;;;;;;;20.10;12.10;;;;;;;1.97;89.08;99206.17;106658;1281;139805;-72
2023/01/22 10:45:59;;;;;;;21.40;13.00;;;;;;;1.96;89.15;99204.79;106653;1281;138411;-71
2023/01/22 10:48:26;;;;;;;23.60;12.30;;;;;;;1.93;89.19;99204.10;106741;1281;25584;-72
2023/01/22 10:51:26;;;;;;;20.70;12.00;;;;;;;1.87;89.33;99210.95;106504;1262;139708;-71
2023/01/22 10:53:55;;;;;;;;;;;;;;;1.81;89.77;99208.02;106824;1278;22538;-72
2023/01/22 10:56:33;;;;;;;20.50;11.90;;;;;;;1.78;89.90;99207.48;106471;1281;124973;-72
2023/01/22 10:59:24;;;;;;;21.10;12.10;;;;;;;1.72;89.84;99209.36;107556;1257;22258;-72
2023/01/22 11:02:01;;;;;;;21.70;11.60;;;;;;;1.66;90.07;99205.58;107836;1275;138593;-72
2023/01/22 11:04:32;;;;;;;24.30;13.10;;;;;;;1.62;90.13;99206.35;107012;1273;138381;-72
2023/01/22 11:07:05;;;;;;;21.60;11.50;;;;;;;1.60;90.46;99209.23;108252;1273;22604;-73
2023/01/22 11:09:39;;;;;;;25.30;13.60;;;;;;;1.59;90.43;99210.27;108216;1259;138172;-73
2023/01/22 11:12:12;;;;;;;19.40;11.30;;;;;;;1.60;90.84;99206.66;107332;1259;22797;-74
2023/01/22 11:14:39;;;;;;;20.90;12.70;;;;;;;1.78;92.25;99207.35;107518;1267;139413;-72
2023/01/22 11:17:28;;;;;;;25.50;13.20;;;;;;;1.91;91.15;99207.52;107230;1273;22585;-73
2023/01/22 11:20:01;;;;;;;21.20;12.40;;;;;;;1.93;90.39;99206.59;106997;1259;138182;-72
2023/01/22 11:22:36;;;;;;;26.40;12.90;;;;;;;2.00;91.06;99205.22;108210;1266;138586;-72
2023/01/22 11:25:05;;;;;;;23.70;14.10;;;;;;;2.01;90.52;99202.60;106699;1281;23019;-72
2023/01/22 11:27:57;;;;;;;25.80;13.40;;;;;;;2.03;90.45;99206.50;106691;1280;139235;-72